Summit, South Dakota
Current Conditions -  °F | °C
As of 8:53 PM on Thursday 27 Nov 2014 (Local Time) from KATY Reporting Station
Overcast Overcast  
Wind Chill: -3°   Ceiling: 8000
Heat Index: 13°   Visibility: 10mi
Dew Point:   Wind: 16mph
Humidity: 71%   Direction: 160°SSE
Pressure: 30.02"   Gusts: 28mph
Location:  45.3°N, 97.04°W
Report Text: KATY 280253Z AUTO 16014G24KT 10SM FEW070 OVC080 M11/M15 A3002 RMK AO2 SNE0159 SLP210 P0000 60000 T11061150 58045
Loading
Personal Weather Stations






























Interactive Weather Map New forecast layout! Learn more

10-Day Weather Forecast

Advertisements
Track Severe Weather on mobile